This is the latest recevied weather packets stored in our database for station/object TF3VP-10. If no packets are shown the sender has not sent any weather packets the latest 10 day(s).
| Time | Temp. | Humidity | Pressure | Rain* | Wind** | Luminosity | Snow |
|---|---|---|---|---|---|---|---|
| 1778024147 | 1.11° C | 61% | 1035.5 hPa | - | - | - | - |
| 1778011547 | 2.78° C | 55% | 1035.4 hPa | - | - | - | - |
| 1778009748 | 3.33° C | 51% | 1035.5 hPa | - | - | - | - |
| 1778008847 | 3.33° C | 49% | 1035.6 hPa | - | - | - | - |
| 1778007947 | 3.33° C | 50% | 1035.6 hPa | - | - | - | - |
| 1778006148 | 3.33° C | 48% | 1035.7 hPa | - | - | - | - |
| 1778003448 | 3.89° C | 49% | 1035.8 hPa | - | - | - | - |
| 1778002547 | 3.89° C | 46% | 1035.7 hPa | - | - | - | - |
| 1778001647 | 3.89° C | 46% | 1036 hPa | - | - | - | - |
| 1777998948 | 4.44° C | 45% | 1036.1 hPa | - | - | - | - |
| 1777995347 | 4.44° C | 44% | 1036.9 hPa | - | - | - | - |
| 1777994448 | 5° C | 41% | 1036.8 hPa | - | - | - | - |
| 1777991747 | 4.44° C | 37% | 1037.2 hPa | - | - | - | - |
| 1777990847 | 4.44° C | 38% | 1037.1 hPa | - | - | - | - |
| 1777989948 | 4.44° C | 39% | 1037.1 hPa | - | - | - | - |
| 1777988148 | 4.44° C | 37% | 1037.3 hPa | - | - | - | - |
| 1777987247 | 4.44° C | 37% | 1037.4 hPa | - | - | - | - |
| 1777985448 | 3.89° C | 37% | 1037.5 hPa | - | - | - | - |
| 1777984547 | 3.89° C | 39% | 1037.8 hPa | - | - | - | - |
| 1777983647 | 3.89° C | 40% | 1037.8 hPa | - | - | - | - |
| 1777981849 | 3.89° C | 39% | 1038 hPa | - | - | - | - |
| 1777980947 | 3.33° C | 39% | 1037.8 hPa | - | - | - | - |
| 1777979147 | 2.78° C | 44% | 1037.9 hPa | - | - | - | - |
| 1777978248 | 2.78° C | 48% | 1038.1 hPa | - | - | - | - |
| 1777977347 | 2.22° C | 50% | 1038.2 hPa | - | - | - | - |
* Rain since midnight (hover to see other rain measurements)
** Current wind speed in m/s (hover to see current wind gust speed)